createdAt,value
2023-03-25T00:00:16.914Z,0.60
2023-03-25T00:01:20.052Z,0.60
2023-03-25T00:02:23.467Z,0.50
2023-03-25T00:03:27.056Z,0.50
2023-03-25T00:04:28.886Z,0.63
2023-03-25T00:05:31.149Z,0.60
2023-03-25T00:06:36.424Z,0.70
2023-03-25T00:07:38.653Z,0.60
2023-03-25T00:08:40.737Z,0.68
2023-03-25T00:09:42.972Z,0.65
2023-03-25T00:10:44.897Z,0.60
2023-03-25T00:11:46.707Z,0.70
2023-03-25T00:12:48.465Z,0.60
2023-03-25T00:13:50.527Z,0.70
2023-03-25T00:14:55.375Z,0.70
2023-03-25T00:15:58.312Z,0.70
2023-03-25T00:17:01.374Z,0.73
2023-03-25T00:18:03.428Z,0.88
2023-03-25T00:19:06.553Z,0.57
2023-03-25T00:20:10.082Z,0.70
2023-03-25T00:21:11.962Z,0.80
2023-03-25T00:22:13.805Z,0.68
2023-03-25T00:23:16.287Z,0.60
2023-03-25T00:24:18.115Z,0.80
2023-03-25T00:25:20.824Z,0.60
2023-03-25T00:26:22.678Z,0.80
2023-03-25T00:27:24.529Z,0.57
2023-03-25T00:28:30.887Z,0.82
2023-03-25T00:29:32.901Z,0.60
2023-03-25T00:30:34.730Z,0.80
2023-03-25T00:31:36.621Z,0.70
2023-03-25T00:32:39.827Z,0.90
2023-03-25T00:33:44.929Z,0.90
2023-03-25T00:34:49.764Z,0.90
2023-03-25T00:35:54.576Z,0.77
2023-03-25T00:36:56.800Z,0.95
2023-03-25T00:38:02.811Z,0.70
2023-03-25T00:39:05.439Z,1.00
2023-03-25T00:40:08.971Z,0.70
2023-03-25T00:41:17.589Z,0.70
2023-03-25T00:42:26.280Z,0.60
2023-03-25T00:43:28.452Z,0.80
2023-03-25T00:44:31.279Z,0.70
2023-03-25T00:45:33.829Z,0.68
2023-03-25T00:46:35.731Z,0.90
2023-03-25T00:47:37.679Z,0.80
2023-03-25T00:48:39.568Z,0.70
2023-03-25T00:49:41.469Z,0.80
2023-03-25T00:50:43.354Z,0.70
2023-03-25T00:51:53.144Z,0.70
2023-03-25T00:52:55.944Z,0.60
2023-03-25T00:54:00.455Z,0.80
2023-03-25T00:55:02.848Z,0.70
2023-03-25T00:56:05.209Z,0.93
2023-03-25T00:57:07.066Z,0.60
2023-03-25T00:58:08.928Z,0.55
2023-03-25T00:59:11.359Z,0.68
2023-03-25T01:00:16.144Z,0.90
2023-03-25T01:01:27.369Z,0.88
2023-03-25T01:02:31.150Z,0.90
2023-03-25T01:03:37.291Z,0.90
2023-03-25T01:04:42.401Z,1.10
2023-03-25T01:05:45.624Z,0.90
2023-03-25T01:06:51.797Z,0.68
2023-03-25T01:07:53.748Z,0.80
2023-03-25T01:08:57.464Z,0.70
2023-03-25T01:09:59.838Z,0.90
2023-03-25T01:11:01.664Z,0.80
2023-03-25T01:12:03.591Z,0.80
2023-03-25T01:13:05.487Z,0.98
2023-03-25T01:14:11.626Z,0.77
2023-03-25T01:15:13.683Z,0.80
2023-03-25T01:16:15.645Z,0.73
2023-03-25T01:17:17.657Z,0.80
2023-03-25T01:18:19.430Z,0.93
2023-03-25T01:19:22.108Z,1.05
2023-03-25T01:20:23.945Z,0.70
2023-03-25T01:21:26.231Z,0.82
2023-03-25T01:22:28.138Z,0.90
2023-03-25T01:23:30.022Z,0.82
2023-03-25T01:24:32.252Z,0.93
2023-03-25T01:25:34.047Z,0.70
2023-03-25T01:26:35.988Z,0.60
2023-03-25T01:27:40.040Z,0.80
2023-03-25T01:28:43.712Z,0.60
2023-03-25T01:29:45.528Z,0.80
2023-03-25T01:30:47.320Z,1.00
2023-03-25T01:31:49.690Z,1.00
2023-03-25T01:32:51.625Z,0.80
2023-03-25T01:33:53.513Z,0.73
2023-03-25T01:34:55.333Z,0.75
2023-03-25T01:35:57.311Z,0.80
2023-03-25T01:36:59.539Z,0.52
2023-03-25T01:38:01.336Z,0.57
2023-03-25T01:39:05.722Z,0.65
2023-03-25T01:40:10.322Z,0.63
2023-03-25T01:41:12.174Z,0.70
2023-03-25T01:42:13.981Z,0.70
2023-03-25T01:43:15.861Z,0.70
2023-03-25T01:44:21.084Z,0.68
2023-03-25T01:45:29.770Z,0.70
2023-03-25T01:46:31.971Z,0.82
2023-03-25T01:47:33.960Z,0.73
2023-03-25T01:48:40.674Z,0.70
2023-03-25T01:49:46.038Z,0.50
2023-03-25T01:51:02.391Z,0.63
2023-03-25T01:52:07.780Z,0.60
2023-03-25T01:53:11.544Z,0.52
2023-03-25T01:54:17.993Z,0.60
2023-03-25T01:55:20.511Z,0.55
2023-03-25T01:56:33.772Z,0.50
2023-03-25T01:57:37.279Z,0.60
2023-03-25T01:58:40.142Z,0.50
2023-03-25T01:59:42.250Z,0.50
2023-03-25T02:00:45.893Z,0.50
2023-03-25T02:01:48.547Z,0.55
2023-03-25T02:02:52.745Z,0.40
2023-03-25T02:04:03.213Z,0.38
2023-03-25T02:05:25.454Z,0.45
2023-03-25T02:06:39.380Z,0.47
2023-03-25T02:07:43.055Z,0.65
2023-03-25T02:08:45.100Z,0.50
2023-03-25T02:09:47.266Z,0.47
2023-03-25T02:10:49.891Z,0.60
2023-03-25T02:11:54.964Z,0.50
2023-03-25T02:12:57.196Z,0.32
2023-03-25T02:14:04.638Z,0.40
2023-03-25T02:15:08.637Z,0.50
2023-03-25T02:16:46.682Z,0.20
2023-03-25T02:18:07.299Z,0.30
2023-03-25T02:19:15.556Z,0.40
2023-03-25T02:20:35.862Z,0.50
2023-03-25T02:22:20.988Z,0.40
2023-03-25T02:23:58.196Z,0.45
2023-03-25T02:25:35.295Z,0.45
2023-03-25T02:26:57.462Z,0.50
2023-03-25T02:28:18.016Z,0.50
2023-03-25T02:29:29.117Z,0.43
2023-03-25T02:30:58.341Z,0.40
2023-03-25T02:32:12.197Z,0.40
2023-03-25T02:33:32.413Z,0.30
2023-03-25T02:35:01.993Z,0.30
2023-03-25T02:36:25.705Z,0.30
2023-03-25T02:38:13.384Z,0.30
2023-03-25T02:39:23.412Z,0.20
2023-03-25T02:40:38.860Z,0.45
2023-03-25T02:41:57.431Z,0.40
2023-03-25T02:43:37.902Z,0.40
2023-03-25T02:44:49.187Z,0.30
2023-03-25T02:45:56.210Z,0.40
2023-03-25T02:47:03.226Z,0.30
2023-03-25T02:48:16.037Z,0.30
2023-03-25T02:49:25.819Z,0.40
2023-03-25T02:50:33.872Z,0.30
2023-03-25T02:51:53.262Z,0.28
2023-03-25T02:53:00.731Z,0.20
2023-03-25T02:54:07.443Z,0.30
2023-03-25T02:55:12.474Z,0.30
2023-03-25T02:56:18.453Z,0.30
2023-03-25T02:57:23.073Z,0.30
2023-03-25T02:58:25.602Z,0.30
2023-03-25T02:59:33.356Z,0.13
2023-03-25T03:00:38.327Z,0.20
2023-03-25T03:01:41.371Z,0.28
2023-03-25T03:02:50.846Z,0.17
2023-03-25T03:03:56.647Z,0.50
2023-03-25T03:04:59.120Z,0.50
2023-03-25T03:06:03.492Z,0.30
2023-03-25T03:07:05.899Z,0.30
2023-03-25T03:08:34.902Z,0.20
2023-03-25T03:09:45.581Z,0.40
2023-03-25T03:10:55.056Z,0.30
2023-03-25T03:12:15.984Z,0.28
2023-03-25T03:13:25.693Z,0.35
2023-03-25T03:14:33.275Z,0.20
2023-03-25T03:15:53.085Z,0.30
2023-03-25T03:17:08.535Z,0.20
2023-03-25T03:18:19.760Z,0.20
2023-03-25T03:19:24.489Z,0.22
2023-03-25T03:20:39.774Z,0.30
2023-03-25T03:21:57.291Z,0.35
2023-03-25T03:23:24.249Z,0.20
2023-03-25T03:24:32.607Z,0.28
2023-03-25T03:25:43.478Z,0.32
2023-03-25T03:26:59.987Z,0.30
2023-03-25T03:28:11.346Z,0.20
2023-03-25T03:29:39.007Z,0.20
2023-03-25T03:30:54.453Z,0.17
2023-03-25T03:32:06.482Z,0.25
2023-03-25T03:33:26.691Z,0.35
2023-03-25T03:34:34.761Z,0.30
2023-03-25T03:35:50.660Z,0.28
2023-03-25T03:36:57.291Z,0.40
2023-03-25T03:38:09.481Z,0.10
2023-03-25T03:39:16.992Z,0.28
2023-03-25T03:40:22.752Z,0.30
2023-03-25T03:41:27.250Z,0.20
2023-03-25T03:42:39.927Z,0.30
2023-03-25T03:44:03.428Z,0.40
2023-03-25T03:45:13.790Z,0.30
2023-03-25T03:46:27.561Z,0.40
2023-03-25T03:47:36.976Z,0.20
2023-03-25T03:48:44.298Z,0.40
2023-03-25T03:49:52.561Z,0.32
2023-03-25T03:51:00.683Z,0.22
2023-03-25T03:52:26.767Z,0.25
2023-03-25T03:53:47.754Z,0.28
2023-03-25T03:54:55.146Z,0.55
2023-03-25T03:56:13.124Z,0.30
2023-03-25T03:57:24.466Z,0.20
2023-03-25T03:58:31.063Z,0.30
2023-03-25T03:59:49.075Z,0.20
2023-03-25T04:01:05.270Z,0.30
2023-03-25T04:02:17.384Z,0.20
2023-03-25T04:03:28.492Z,0.30
2023-03-25T04:04:31.729Z,0.47
2023-03-25T04:05:38.359Z,0.40
2023-03-25T04:06:46.711Z,0.40
2023-03-25T04:07:57.140Z,0.40
2023-03-25T04:09:09.489Z,0.50
2023-03-25T04:10:29.814Z,0.40
2023-03-25T04:11:40.299Z,0.30
2023-03-25T04:12:50.396Z,0.30
2023-03-25T04:13:57.728Z,0.30
2023-03-25T04:15:04.422Z,0.20
2023-03-25T04:16:07.378Z,0.25
2023-03-25T04:17:09.311Z,0.20
2023-03-25T04:18:12.193Z,0.17
2023-03-25T04:19:18.508Z,0.30
2023-03-25T04:20:24.896Z,0.30
2023-03-25T04:21:30.046Z,0.20
2023-03-25T04:22:31.907Z,0.30
2023-03-25T04:23:34.875Z,0.30
2023-03-25T04:24:37.861Z,0.30
2023-03-25T04:25:39.675Z,0.40
2023-03-25T04:26:42.381Z,0.20
2023-03-25T04:27:48.812Z,0.40
2023-03-25T04:28:50.945Z,0.40
2023-03-25T04:29:52.730Z,0.30
2023-03-25T04:30:55.804Z,0.30
2023-03-25T04:31:58.624Z,0.30
2023-03-25T04:33:00.777Z,0.30
2023-03-25T04:34:02.792Z,0.40
2023-03-25T04:35:04.906Z,0.20
2023-03-25T04:36:07.178Z,0.35
2023-03-25T04:37:09.118Z,0.30
2023-03-25T04:38:11.978Z,0.20
2023-03-25T04:39:13.845Z,0.20
2023-03-25T04:40:18.846Z,0.40
2023-03-25T04:41:20.804Z,0.22
2023-03-25T04:42:25.825Z,0.28
2023-03-25T04:43:28.463Z,0.30
2023-03-25T04:44:33.791Z,0.38
2023-03-25T04:45:36.499Z,0.30
2023-03-25T04:46:38.567Z,0.20
2023-03-25T04:47:47.238Z,0.20
2023-03-25T04:48:49.304Z,0.20
2023-03-25T04:49:51.233Z,0.40
2023-03-25T04:50:54.916Z,0.30
2023-03-25T04:51:57.079Z,0.22
2023-03-25T04:53:00.476Z,0.10
2023-03-25T04:54:02.252Z,0.30
2023-03-25T04:55:05.298Z,0.30
2023-03-25T04:56:13.186Z,0.20
2023-03-25T04:57:15.413Z,0.22
2023-03-25T04:58:18.061Z,0.20
2023-03-25T04:59:24.416Z,0.20
2023-03-25T05:00:27.417Z,0.20
2023-03-25T05:01:33.053Z,0.30
2023-03-25T05:02:34.992Z,0.30
2023-03-25T05:03:40.084Z,0.30
2023-03-25T05:04:43.062Z,0.30
2023-03-25T05:05:44.899Z,0.20
2023-03-25T05:06:50.647Z,0.30
2023-03-25T05:07:54.625Z,0.13
2023-03-25T05:08:56.441Z,0.20
2023-03-25T05:09:58.245Z,0.15
2023-03-25T05:11:00.122Z,0.20
2023-03-25T05:12:01.953Z,0.22
2023-03-25T05:13:06.602Z,0.38
2023-03-25T05:14:09.832Z,0.28
2023-03-25T05:15:12.792Z,0.30
2023-03-25T05:16:14.672Z,0.35
2023-03-25T05:17:16.578Z,0.22
2023-03-25T05:18:18.405Z,0.20
2023-03-25T05:19:20.963Z,0.10
2023-03-25T05:20:22.839Z,0.20
2023-03-25T05:21:24.730Z,0.50
2023-03-25T05:22:26.883Z,0.20
2023-03-25T05:23:28.828Z,0.30
2023-03-25T05:24:30.707Z,0.30
2023-03-25T05:25:34.484Z,0.20
2023-03-25T05:26:37.948Z,0.40
2023-03-25T05:27:39.917Z,0.20
2023-03-25T05:28:42.497Z,0.20
2023-03-25T05:29:44.676Z,0.28
2023-03-25T05:30:47.669Z,0.20
2023-03-25T05:31:49.518Z,0.15
2023-03-25T05:32:56.442Z,0.30
2023-03-25T05:33:58.954Z,0.20
2023-03-25T05:35:01.949Z,0.10
2023-03-25T05:36:04.841Z,0.30
2023-03-25T05:37:06.810Z,0.15
2023-03-25T05:38:12.489Z,0.20
2023-03-25T05:39:14.424Z,0.20
2023-03-25T05:40:16.338Z,0.25
2023-03-25T05:41:18.236Z,0.20
2023-03-25T05:42:23.059Z,0.30
2023-03-25T05:43:25.105Z,0.20
2023-03-25T05:44:26.873Z,0.17
2023-03-25T05:45:28.993Z,0.30
2023-03-25T05:46:31.073Z,0.20
2023-03-25T05:47:33.023Z,0.20
2023-03-25T05:48:35.713Z,0.30
2023-03-25T05:49:37.469Z,0.28
2023-03-25T05:50:42.923Z,0.30
2023-03-25T05:51:45.252Z,0.30
2023-03-25T05:52:49.667Z,0.22
2023-03-25T05:53:51.654Z,0.32
2023-03-25T05:54:53.413Z,0.20
2023-03-25T05:55:55.331Z,0.20
2023-03-25T05:56:57.225Z,0.20
2023-03-25T05:57:59.074Z,0.30
2023-03-25T05:59:01.076Z,0.20
2023-03-25T06:00:08.432Z,0.30
2023-03-25T06:01:21.857Z,0.20
2023-03-25T06:02:35.799Z,0.40
2023-03-25T06:03:38.659Z,0.10
2023-03-25T06:04:43.850Z,0.30
2023-03-25T06:05:45.678Z,0.10
2023-03-25T06:06:47.830Z,0.20
2023-03-25T06:07:50.705Z,0.13
2023-03-25T06:08:52.977Z,0.20
2023-03-25T06:09:56.083Z,0.10
2023-03-25T06:11:01.325Z,0.20
2023-03-25T06:12:04.260Z,0.10
2023-03-25T06:13:06.097Z,0.28
2023-03-25T06:14:08.195Z,0.20
2023-03-25T06:15:11.840Z,0.20
2023-03-25T06:16:13.708Z,0.25
2023-03-25T06:17:19.113Z,0.15
2023-03-25T06:18:24.635Z,0.13
2023-03-25T06:19:26.787Z,0.30
2023-03-25T06:20:28.612Z,0.20
2023-03-25T06:21:34.527Z,0.10
2023-03-25T06:22:43.022Z,0.40
2023-03-25T06:23:44.880Z,0.20
2023-03-25T06:24:48.689Z,0.10
2023-03-25T06:25:54.866Z,0.30
2023-03-25T06:26:56.661Z,0.20
2023-03-25T06:28:03.140Z,0.20
2023-03-25T06:29:05.221Z,0.20
2023-03-25T06:30:13.549Z,0.20
2023-03-25T06:31:22.693Z,0.28
2023-03-25T06:32:26.061Z,0.28
2023-03-25T06:33:42.797Z,0.30
2023-03-25T06:34:45.905Z,0.20
2023-03-25T06:35:54.710Z,0.20
2023-03-25T06:36:56.571Z,0.10
2023-03-25T06:37:58.354Z,0.47
2023-03-25T06:39:26.576Z,0.22
2023-03-25T06:40:30.745Z,0.30
2023-03-25T06:41:36.235Z,0.30
2023-03-25T06:42:49.627Z,0.20
2023-03-25T06:44:12.093Z,0.20
2023-03-25T06:45:33.995Z,0.20
2023-03-25T06:46:43.400Z,0.20
2023-03-25T06:48:11.440Z,0.15
2023-03-25T06:49:13.216Z,0.20
2023-03-25T06:50:15.186Z,0.20
2023-03-25T06:51:16.938Z,0.10
2023-03-25T06:52:18.813Z,0.15
2023-03-25T06:53:20.934Z,0.22
2023-03-25T06:54:22.942Z,0.20
2023-03-25T06:55:24.940Z,0.20
2023-03-25T06:56:26.880Z,0.17
2023-03-25T06:57:28.747Z,0.30
2023-03-25T06:58:35.207Z,0.40
2023-03-25T06:59:37.410Z,0.10
2023-03-25T07:00:39.253Z,0.30
2023-03-25T07:01:41.426Z,0.22
2023-03-25T07:02:43.248Z,0.30
2023-03-25T07:03:45.142Z,0.20
2023-03-25T07:04:46.969Z,0.30
2023-03-25T07:05:49.734Z,0.17
2023-03-25T07:06:52.284Z,0.20
2023-03-25T07:07:54.235Z,0.38
2023-03-25T07:08:56.068Z,0.20
2023-03-25T07:09:57.942Z,0.20
2023-03-25T07:11:05.122Z,0.28
2023-03-25T07:12:09.121Z,0.10
2023-03-25T07:13:11.465Z,0.30
2023-03-25T07:14:13.398Z,0.40
2023-03-25T07:15:15.489Z,0.30
2023-03-25T07:16:21.244Z,0.20
2023-03-25T07:17:23.991Z,0.30
2023-03-25T07:18:26.225Z,0.20
2023-03-25T07:19:28.099Z,0.28
2023-03-25T07:20:30.949Z,0.30
2023-03-25T07:21:32.840Z,0.50
2023-03-25T07:22:34.678Z,0.30
2023-03-25T07:23:36.584Z,0.30
2023-03-25T07:24:38.412Z,0.40
2023-03-25T07:25:40.562Z,0.50
2023-03-25T07:26:42.357Z,0.25
2023-03-25T07:27:45.976Z,0.40
2023-03-25T07:28:52.008Z,0.30
2023-03-25T07:29:53.947Z,0.20
2023-03-25T07:30:55.812Z,0.20
2023-03-25T07:31:57.837Z,0.30
2023-03-25T07:32:59.739Z,0.25
2023-03-25T07:34:02.918Z,0.30
2023-03-25T07:35:05.799Z,0.20
2023-03-25T07:36:10.827Z,0.32
2023-03-25T07:37:12.776Z,0.50
2023-03-25T07:38:14.550Z,0.40
2023-03-25T07:39:16.354Z,0.30
2023-03-25T07:40:18.608Z,0.38
2023-03-25T07:41:20.473Z,0.30
2023-03-25T07:42:45.356Z,0.22
2023-03-25T07:43:51.496Z,0.52
2023-03-25T07:45:01.116Z,0.43
2023-03-25T07:46:04.833Z,0.38
2023-03-25T07:47:06.701Z,0.50
2023-03-25T07:48:13.701Z,0.40
2023-03-25T07:49:17.000Z,0.40
2023-03-25T07:50:22.556Z,0.30
2023-03-25T07:51:26.469Z,0.30
2023-03-25T07:52:28.247Z,0.38
2023-03-25T07:53:30.085Z,0.30
2023-03-25T07:54:31.987Z,0.47
2023-03-25T07:55:33.986Z,0.45
2023-03-25T07:56:35.987Z,0.57
2023-03-25T07:57:37.831Z,0.35
2023-03-25T07:58:39.811Z,0.60
2023-03-25T07:59:41.594Z,0.43
2023-03-25T08:00:43.544Z,0.40
2023-03-25T08:01:45.743Z,0.50
2023-03-25T08:02:47.757Z,0.30
2023-03-25T08:03:49.962Z,0.50
2023-03-25T08:04:54.532Z,0.50
2023-03-25T08:05:56.365Z,0.45
2023-03-25T08:06:58.175Z,0.40
2023-03-25T08:08:01.002Z,0.40
2023-03-25T08:09:02.874Z,0.40
2023-03-25T08:10:04.997Z,0.50
2023-03-25T08:11:07.413Z,0.60
2023-03-25T08:12:09.783Z,0.65
2023-03-25T08:13:12.215Z,0.50
2023-03-25T08:14:14.168Z,0.63
2023-03-25T08:15:17.917Z,0.40
2023-03-25T08:16:19.814Z,0.45
2023-03-25T08:17:21.692Z,0.40
2023-03-25T08:18:24.700Z,0.50
2023-03-25T08:19:26.721Z,0.52
2023-03-25T08:20:28.942Z,0.60
2023-03-25T08:21:30.808Z,0.47
2023-03-25T08:22:33.357Z,0.50
2023-03-25T08:23:37.118Z,0.45
2023-03-25T08:24:39.012Z,0.50
2023-03-25T08:25:43.939Z,0.50
2023-03-25T08:26:45.729Z,0.32
2023-03-25T08:27:47.564Z,0.40
2023-03-25T08:28:49.480Z,0.38
2023-03-25T08:29:57.302Z,0.50
2023-03-25T08:31:02.415Z,0.60
2023-03-25T08:32:04.342Z,0.50
2023-03-25T08:33:07.546Z,0.40
2023-03-25T08:34:09.396Z,0.40
2023-03-25T08:35:11.166Z,0.45
2023-03-25T08:36:14.515Z,0.43
2023-03-25T08:37:16.593Z,0.40
2023-03-25T08:38:18.523Z,0.55
2023-03-25T08:39:22.112Z,0.73
2023-03-25T08:40:23.945Z,0.50
2023-03-25T08:41:26.121Z,0.50
2023-03-25T08:42:27.886Z,0.40
2023-03-25T08:43:29.711Z,0.40
2023-03-25T08:44:31.491Z,0.30
2023-03-25T08:45:35.006Z,0.30
2023-03-25T08:46:37.375Z,0.30
2023-03-25T08:47:39.805Z,0.52
2023-03-25T08:48:43.953Z,0.38
2023-03-25T08:49:45.994Z,0.40
2023-03-25T08:50:47.762Z,0.30
2023-03-25T08:51:49.551Z,0.52
2023-03-25T08:52:53.672Z,0.60
2023-03-25T08:53:55.707Z,0.65
2023-03-25T08:54:57.606Z,0.60
2023-03-25T08:55:59.557Z,0.50
2023-03-25T08:57:01.725Z,0.50
2023-03-25T08:58:06.235Z,0.63
2023-03-25T08:59:08.259Z,0.52
2023-03-25T09:00:14.108Z,0.38
2023-03-25T09:01:16.018Z,0.40
2023-03-25T09:02:18.082Z,0.60
2023-03-25T09:03:23.954Z,0.20
2023-03-25T09:04:25.928Z,0.45
2023-03-25T09:05:27.882Z,0.50
2023-03-25T09:06:29.749Z,0.40
2023-03-25T09:07:50.032Z,0.60
2023-03-25T09:08:52.394Z,0.45
2023-03-25T09:09:54.274Z,0.60
2023-03-25T09:10:56.487Z,0.47
2023-03-25T09:11:58.274Z,0.30
2023-03-25T09:13:00.192Z,0.47
2023-03-25T09:14:05.086Z,0.20
2023-03-25T09:15:07.901Z,0.43
2023-03-25T09:16:10.183Z,0.60
2023-03-25T09:17:11.992Z,0.60
2023-03-25T09:18:14.105Z,0.47
2023-03-25T09:19:16.092Z,0.50
2023-03-25T09:20:18.788Z,0.50
2023-03-25T09:21:21.007Z,0.50
2023-03-25T09:22:23.101Z,0.50
2023-03-25T09:23:24.929Z,0.43
2023-03-25T09:24:27.155Z,0.30
2023-03-25T09:25:28.920Z,0.40
2023-03-25T09:26:30.726Z,0.28
2023-03-25T09:27:33.085Z,0.40
2023-03-25T09:28:35.105Z,0.50
2023-03-25T09:29:36.941Z,0.30
2023-03-25T09:30:38.769Z,0.30
2023-03-25T09:31:40.989Z,0.57
2023-03-25T09:32:42.972Z,0.40
2023-03-25T09:33:44.850Z,0.50
2023-03-25T09:34:46.771Z,0.40
2023-03-25T09:35:50.202Z,0.30
2023-03-25T09:36:52.167Z,0.40
2023-03-25T09:37:53.963Z,0.30
2023-03-25T09:38:56.048Z,0.30
2023-03-25T09:39:57.916Z,0.40
2023-03-25T09:41:05.332Z,0.70
2023-03-25T09:42:25.422Z,0.55
2023-03-25T09:43:45.358Z,0.60
2023-03-25T09:44:50.021Z,0.45
2023-03-25T09:45:53.516Z,0.57
2023-03-25T09:46:58.865Z,0.52
2023-03-25T09:48:17.252Z,0.60
2023-03-25T09:49:25.854Z,0.55
2023-03-25T09:50:30.510Z,0.40
2023-03-25T09:51:37.519Z,0.50
2023-03-25T09:52:51.536Z,0.40
2023-03-25T09:54:02.465Z,0.88
2023-03-25T09:55:11.381Z,0.50
2023-03-25T09:56:20.335Z,0.60
2023-03-25T09:57:27.544Z,0.55
2023-03-25T09:58:42.033Z,0.50
2023-03-25T09:59:50.196Z,0.63
2023-03-25T10:01:00.485Z,0.50
2023-03-25T10:02:43.833Z,0.40
2023-03-25T10:04:16.123Z,0.50
2023-03-25T10:05:26.791Z,0.40
2023-03-25T10:06:32.839Z,0.63
2023-03-25T10:08:06.143Z,0.70
2023-03-25T10:09:10.170Z,0.88
2023-03-25T10:10:23.896Z,0.30
2023-03-25T10:11:42.711Z,0.50
2023-03-25T10:12:58.781Z,0.68
2023-03-25T10:14:11.485Z,0.60
2023-03-25T10:15:35.401Z,0.50
2023-03-25T10:16:49.074Z,0.43
2023-03-25T10:18:20.043Z,0.70
2023-03-25T10:19:34.041Z,0.65
2023-03-25T10:20:44.184Z,0.55
2023-03-25T10:22:09.418Z,0.50
2023-03-25T10:23:23.347Z,0.68
2023-03-25T10:24:40.308Z,0.60
2023-03-25T10:25:46.842Z,0.60
2023-03-25T10:26:57.695Z,0.60
2023-03-25T10:28:01.241Z,0.57
2023-03-25T10:29:19.661Z,0.57
2023-03-25T10:30:38.760Z,0.43
2023-03-25T10:31:50.363Z,0.60
2023-03-25T10:32:57.271Z,0.50
2023-03-25T10:34:05.852Z,0.60
2023-03-25T10:35:18.362Z,0.45
2023-03-25T10:36:34.042Z,0.50
2023-03-25T10:37:42.162Z,0.45
2023-03-25T10:38:45.292Z,0.60
2023-03-25T10:39:47.824Z,0.47
2023-03-25T10:40:53.123Z,0.40
2023-03-25T10:42:00.351Z,0.63
2023-03-25T10:43:23.809Z,0.52
2023-03-25T10:44:29.049Z,0.40
2023-03-25T10:45:31.686Z,0.60
2023-03-25T10:46:48.309Z,0.45
2023-03-25T10:47:54.237Z,0.43
2023-03-25T10:48:56.479Z,0.40
2023-03-25T10:49:59.527Z,0.60
2023-03-25T10:51:13.821Z,0.35
2023-03-25T10:52:16.682Z,0.50
2023-03-25T10:53:25.113Z,0.50
2023-03-25T10:54:34.155Z,0.50
2023-03-25T10:55:37.468Z,0.30
2023-03-25T10:56:51.578Z,0.40
2023-03-25T10:57:54.665Z,0.55
2023-03-25T10:58:58.214Z,0.40
2023-03-25T11:00:18.332Z,0.40
2023-03-25T11:01:28.277Z,0.52
2023-03-25T11:02:32.382Z,0.43
2023-03-25T11:03:35.457Z,0.65
2023-03-25T11:04:41.194Z,0.47
2023-03-25T11:05:44.010Z,0.40
2023-03-25T11:06:52.702Z,0.40
2023-03-25T11:08:08.848Z,0.32
2023-03-25T11:09:19.380Z,0.50
2023-03-25T11:10:25.312Z,0.43
2023-03-25T11:11:36.746Z,0.60
2023-03-25T11:12:43.249Z,0.50
2023-03-25T11:13:45.929Z,0.40
2023-03-25T11:14:56.626Z,0.45
2023-03-25T11:16:02.117Z,0.40
2023-03-25T11:17:11.604Z,0.60
2023-03-25T11:18:40.676Z,0.60
2023-03-25T11:19:58.074Z,0.40
2023-03-25T11:21:12.652Z,0.40
2023-03-25T11:22:22.261Z,0.50
2023-03-25T11:23:33.021Z,0.40
2023-03-25T11:24:42.231Z,0.50
2023-03-25T11:25:44.179Z,0.40
2023-03-25T11:26:49.128Z,0.45
2023-03-25T11:27:59.402Z,0.50
2023-03-25T11:29:05.764Z,0.43
2023-03-25T11:30:16.565Z,0.38
2023-03-25T11:31:21.520Z,0.63
2023-03-25T11:32:35.215Z,0.55
2023-03-25T11:33:38.554Z,0.40
2023-03-25T11:34:43.819Z,0.30
2023-03-25T11:35:49.184Z,0.40
2023-03-25T11:37:04.601Z,0.55
2023-03-25T11:38:24.112Z,0.22
2023-03-25T11:39:35.917Z,0.20
2023-03-25T11:40:37.714Z,0.40
2023-03-25T11:41:39.625Z,0.40
2023-03-25T11:42:43.814Z,0.50
2023-03-25T11:43:49.263Z,0.38
2023-03-25T11:44:56.811Z,0.40
2023-03-25T11:46:07.846Z,0.30
2023-03-25T11:47:12.019Z,0.25
2023-03-25T11:48:22.858Z,0.43
2023-03-25T11:49:26.404Z,0.40
2023-03-25T11:50:30.032Z,0.50
2023-03-25T11:51:33.802Z,0.45
2023-03-25T11:52:43.579Z,0.30
2023-03-25T11:53:55.847Z,0.30
2023-03-25T11:54:57.960Z,0.30
2023-03-25T11:56:04.924Z,0.40
2023-03-25T11:57:14.312Z,0.70
2023-03-25T11:58:19.048Z,0.47
2023-03-25T11:59:25.932Z,0.28
2023-03-25T12:00:32.696Z,0.40
2023-03-25T12:01:44.402Z,0.57
2023-03-25T12:02:46.294Z,0.32
2023-03-25T12:03:48.362Z,0.17
2023-03-25T12:05:12.535Z,0.35
2023-03-25T12:06:22.649Z,0.43
2023-03-25T12:07:24.598Z,0.30
2023-03-25T12:08:30.902Z,0.45
2023-03-25T12:09:33.029Z,0.35
2023-03-25T12:10:40.037Z,0.47
2023-03-25T12:11:47.643Z,0.30
2023-03-25T12:13:06.926Z,0.50
2023-03-25T12:14:34.305Z,0.40
2023-03-25T12:15:46.659Z,0.50
2023-03-25T12:17:04.812Z,0.30
2023-03-25T12:18:16.199Z,0.32
2023-03-25T12:19:20.876Z,0.43
2023-03-25T12:20:28.425Z,0.45
2023-03-25T12:21:50.245Z,0.43
2023-03-25T12:23:21.713Z,0.50
2023-03-25T12:24:48.290Z,0.35
2023-03-25T12:26:13.211Z,0.50
2023-03-25T12:27:33.704Z,0.40
2023-03-25T12:28:57.160Z,0.40
2023-03-25T12:30:13.501Z,0.43
2023-03-25T12:31:39.712Z,0.60
2023-03-25T12:33:13.744Z,0.50
2023-03-25T12:34:41.724Z,0.30
2023-03-25T12:36:06.875Z,0.43
2023-03-25T12:37:19.513Z,0.45
2023-03-25T12:38:40.355Z,0.28
2023-03-25T12:40:06.749Z,0.40
2023-03-25T12:41:08.720Z,0.30
2023-03-25T12:42:26.797Z,0.40
2023-03-25T12:43:56.104Z,0.20
2023-03-25T12:45:30.125Z,0.40
2023-03-25T12:46:35.022Z,0.38
2023-03-25T12:47:49.720Z,0.52
2023-03-25T12:49:00.433Z,0.40
2023-03-25T12:50:02.157Z,0.52
2023-03-25T12:51:22.158Z,0.40
2023-03-25T12:52:42.204Z,0.30
2023-03-25T12:53:46.231Z,0.40
2023-03-25T12:54:50.802Z,0.20
2023-03-25T12:56:11.959Z,0.20
2023-03-25T12:57:22.622Z,0.30
2023-03-25T12:58:49.123Z,0.30
2023-03-25T13:00:09.240Z,0.40
2023-03-25T13:01:29.209Z,0.30
2023-03-25T13:03:02.764Z,0.30
2023-03-25T13:04:29.297Z,0.30
2023-03-25T13:05:36.784Z,0.30
2023-03-25T13:07:10.864Z,0.45
2023-03-25T13:08:24.436Z,0.50
2023-03-25T13:09:34.104Z,0.50
2023-03-25T13:10:38.645Z,0.38
2023-03-25T13:12:13.643Z,0.30
2023-03-25T13:13:24.300Z,0.40
2023-03-25T13:14:35.647Z,0.30
2023-03-25T13:15:46.402Z,0.20
2023-03-25T13:16:51.862Z,0.10
2023-03-25T13:18:12.221Z,0.30
2023-03-25T13:19:19.785Z,0.32
2023-03-25T13:20:24.860Z,0.40
2023-03-25T13:21:31.938Z,0.20
2023-03-25T13:22:38.127Z,0.20
2023-03-25T13:23:42.487Z,0.40
2023-03-25T13:24:54.430Z,0.20
2023-03-25T13:26:14.504Z,0.20
2023-03-25T13:27:17.389Z,0.40
2023-03-25T13:28:43.606Z,0.20
2023-03-25T13:29:52.934Z,0.20
2023-03-25T13:30:57.451Z,0.40
2023-03-25T13:32:03.250Z,0.45
2023-03-25T13:33:22.060Z,0.30
2023-03-25T13:34:35.162Z,0.30
2023-03-25T13:36:01.468Z,0.30
2023-03-25T13:37:18.080Z,0.22
2023-03-25T13:38:26.494Z,0.22
2023-03-25T13:39:53.104Z,0.40
2023-03-25T13:41:04.548Z,0.40
2023-03-25T13:42:26.907Z,0.22
2023-03-25T13:43:31.825Z,0.30
2023-03-25T13:44:38.432Z,0.40
2023-03-25T13:46:11.898Z,0.30
2023-03-25T13:47:22.871Z,0.20
2023-03-25T13:48:29.682Z,0.40
2023-03-25T13:49:51.130Z,0.45
2023-03-25T13:50:53.301Z,0.40
2023-03-25T13:51:56.224Z,0.30
2023-03-25T13:53:12.953Z,0.20
2023-03-25T13:54:25.745Z,0.30
2023-03-25T13:55:56.468Z,0.30
2023-03-25T13:57:22.748Z,0.30
2023-03-25T13:58:33.714Z,0.40
2023-03-25T14:00:14.450Z,0.30
2023-03-25T14:02:12.049Z,0.50
2023-03-25T14:03:22.853Z,0.50
2023-03-25T14:04:52.097Z,0.30
2023-03-25T14:06:19.570Z,0.47
2023-03-25T14:07:51.863Z,0.40
2023-03-25T14:09:05.664Z,0.43
2023-03-25T14:10:29.857Z,0.30
2023-03-25T14:11:51.947Z,0.50
2023-03-25T14:13:04.775Z,0.25
2023-03-25T14:14:11.464Z,0.30
2023-03-25T14:15:40.714Z,0.30
2023-03-25T14:16:47.497Z,0.30
2023-03-25T14:17:52.831Z,0.40
2023-03-25T14:19:10.877Z,0.40
2023-03-25T14:20:21.017Z,0.40
2023-03-25T14:21:50.256Z,0.30
2023-03-25T14:23:02.843Z,0.35
2023-03-25T14:24:36.330Z,0.40
2023-03-25T14:25:45.929Z,0.30
2023-03-25T14:27:02.922Z,0.30
2023-03-25T14:28:06.404Z,0.32
2023-03-25T14:29:19.192Z,0.30
2023-03-25T14:30:26.982Z,0.30
2023-03-25T14:31:32.874Z,0.35
2023-03-25T14:32:37.787Z,0.30
2023-03-25T14:34:03.073Z,0.40
2023-03-25T14:35:36.753Z,0.30
2023-03-25T14:36:41.927Z,0.40
2023-03-25T14:37:43.919Z,0.43
2023-03-25T14:38:53.977Z,0.40
2023-03-25T14:40:00.323Z,0.30
2023-03-25T14:41:03.831Z,0.40
2023-03-25T14:42:08.964Z,0.38
2023-03-25T14:43:26.084Z,0.40
2023-03-25T14:44:33.019Z,0.40
2023-03-25T14:45:50.596Z,0.40
2023-03-25T14:47:02.210Z,0.40
2023-03-25T14:48:23.033Z,0.60
2023-03-25T14:49:50.345Z,0.20
2023-03-25T14:51:13.923Z,0.38
2023-03-25T14:52:18.809Z,0.28
2023-03-25T14:53:20.935Z,0.30
2023-03-25T14:54:36.075Z,0.40
2023-03-25T14:55:47.773Z,0.30
2023-03-25T14:57:08.159Z,0.30
2023-03-25T14:58:27.947Z,0.43
2023-03-25T14:59:37.720Z,0.30
2023-03-25T15:00:50.247Z,0.35
2023-03-25T15:01:52.977Z,0.28
2023-03-25T15:03:03.095Z,0.20
2023-03-25T15:04:15.533Z,0.30
2023-03-25T15:05:26.582Z,0.35